createdAt,value
2023-03-17T00:01:55.915Z,4.90
2023-03-17T00:04:24.708Z,7.35
2023-03-17T00:06:52.766Z,7.50
2023-03-17T00:09:22.320Z,8.65
2023-03-17T00:11:50.374Z,10.25
2023-03-17T00:14:21.577Z,7.68
2023-03-17T00:16:50.235Z,6.75
2023-03-17T00:19:21.723Z,7.37
2023-03-17T00:21:49.494Z,7.78
2023-03-17T00:24:17.408Z,7.40
2023-03-17T00:26:44.805Z,6.18
2023-03-17T00:29:13.396Z,7.80
2023-03-17T00:31:40.666Z,8.05
2023-03-17T00:34:12.232Z,4.60
2023-03-17T00:36:40.645Z,6.93
2023-03-17T00:39:17.476Z,6.93
2023-03-17T00:41:44.650Z,8.32
2023-03-17T00:44:12.264Z,7.35
2023-03-17T00:46:41.897Z,10.45
2023-03-17T00:49:20.237Z,13.82
2023-03-17T00:51:48.279Z,6.57
2023-03-17T00:54:16.456Z,6.57
2023-03-17T00:56:44.331Z,6.25
2023-03-17T00:59:22.142Z,7.05
2023-03-17T01:01:49.322Z,7.68
2023-03-17T01:04:17.064Z,9.05
2023-03-17T01:06:44.260Z,7.40
2023-03-17T01:09:15.002Z,4.25
2023-03-17T01:11:42.874Z,6.87
2023-03-17T01:14:12.072Z,7.82
2023-03-17T01:16:39.684Z,10.45
2023-03-17T01:19:07.098Z,7.07
2023-03-17T01:21:34.787Z,6.97
2023-03-17T01:24:02.784Z,6.85
2023-03-17T01:26:30.308Z,7.15
2023-03-17T01:28:57.513Z,9.10
2023-03-17T01:31:26.287Z,7.35
2023-03-17T01:33:54.036Z,7.22
2023-03-17T01:36:22.172Z,8.70
2023-03-17T01:38:50.900Z,11.43
2023-03-17T01:41:19.088Z,5.47
2023-03-17T01:43:46.462Z,8.52
2023-03-17T01:46:29.331Z,7.35
2023-03-17T01:49:09.413Z,9.90
2023-03-17T01:51:47.591Z,8.27
2023-03-17T01:54:27.131Z,11.43
2023-03-17T01:56:57.466Z,6.80
2023-03-17T01:59:29.132Z,5.57
2023-03-17T02:02:02.329Z,5.93
2023-03-17T02:04:29.918Z,5.27
2023-03-17T02:06:58.923Z,6.10
2023-03-17T02:09:27.318Z,7.50
2023-03-17T02:11:56.575Z,6.95
2023-03-17T02:14:23.769Z,4.57
2023-03-17T02:16:51.360Z,6.95
2023-03-17T02:19:18.595Z,6.62
2023-03-17T02:21:57.320Z,8.90
2023-03-17T02:24:35.392Z,13.38
2023-03-17T02:27:09.058Z,9.60
2023-03-17T02:29:37.819Z,5.20
2023-03-17T02:32:06.483Z,8.65
2023-03-17T02:34:34.848Z,8.40
2023-03-17T02:37:05.947Z,7.18
2023-03-17T02:39:33.089Z,6.22
2023-03-17T02:42:00.223Z,9.00
2023-03-17T02:44:27.772Z,4.55
2023-03-17T02:46:54.952Z,7.35
2023-03-17T02:49:22.844Z,5.45
2023-03-17T02:51:50.730Z,8.00
2023-03-17T02:54:17.919Z,9.70
2023-03-17T02:56:45.877Z,7.35
2023-03-17T02:59:13.250Z,9.38
2023-03-17T03:01:40.492Z,5.22
2023-03-17T03:04:10.771Z,8.13
2023-03-17T03:06:39.834Z,6.40
2023-03-17T03:09:06.955Z,9.48
2023-03-17T03:11:34.085Z,5.55
2023-03-17T03:14:01.487Z,5.03
2023-03-17T03:16:28.544Z,6.47
2023-03-17T03:18:56.861Z,6.25
2023-03-17T03:21:24.365Z,10.02
2023-03-17T03:23:51.546Z,10.32
2023-03-17T03:26:19.192Z,9.65
2023-03-17T03:28:46.877Z,7.18
2023-03-17T03:31:14.161Z,8.45
2023-03-17T03:33:41.939Z,7.95
2023-03-17T03:36:09.903Z,6.30
2023-03-17T03:38:37.183Z,6.60
2023-03-17T03:41:04.420Z,5.75
2023-03-17T03:43:31.846Z,5.25
2023-03-17T03:46:00.222Z,7.97
2023-03-17T03:48:28.360Z,6.40
2023-03-17T03:50:57.792Z,6.53
2023-03-17T03:53:25.266Z,9.25
2023-03-17T03:55:52.664Z,6.15
2023-03-17T03:58:20.232Z,5.15
2023-03-17T04:00:47.750Z,11.68
2023-03-17T04:03:16.026Z,7.72
2023-03-17T04:05:43.358Z,6.70
2023-03-17T04:08:11.346Z,5.07
2023-03-17T04:10:38.737Z,9.63
2023-03-17T04:13:06.613Z,9.10
2023-03-17T04:15:33.791Z,5.40
2023-03-17T04:18:01.189Z,8.20
2023-03-17T04:20:28.963Z,5.97
2023-03-17T04:22:56.324Z,14.50
2023-03-17T04:25:23.763Z,9.70
2023-03-17T04:27:51.014Z,7.25
2023-03-17T04:30:18.380Z,5.93
2023-03-17T04:32:46.460Z,11.25
2023-03-17T04:35:16.125Z,8.55
2023-03-17T04:37:43.812Z,6.87
2023-03-17T04:40:13.360Z,7.93
2023-03-17T04:42:40.715Z,9.00
2023-03-17T04:45:11.235Z,7.62
2023-03-17T04:47:39.433Z,5.78
2023-03-17T04:50:08.921Z,7.75
2023-03-17T04:52:36.920Z,8.57
2023-03-17T04:55:05.798Z,9.77
2023-03-17T04:57:33.189Z,11.18
2023-03-17T05:00:00.307Z,9.80
2023-03-17T05:02:28.260Z,8.48
2023-03-17T05:04:55.521Z,8.13
2023-03-17T05:07:22.627Z,10.02
2023-03-17T05:09:50.224Z,14.13
2023-03-17T05:12:17.297Z,10.38
2023-03-17T05:14:44.403Z,9.35
2023-03-17T05:17:11.948Z,9.68
2023-03-17T05:19:39.036Z,8.52
2023-03-17T05:22:06.274Z,8.15
2023-03-17T05:24:33.855Z,8.32
2023-03-17T05:27:01.750Z,8.52
2023-03-17T05:29:29.897Z,16.23
2023-03-17T05:31:57.420Z,14.70
2023-03-17T05:34:24.607Z,13.52
2023-03-17T05:36:51.794Z,8.07
2023-03-17T05:39:19.168Z,10.32
2023-03-17T05:41:47.202Z,7.15
2023-03-17T05:44:14.655Z,12.35
2023-03-17T05:46:42.219Z,10.52
2023-03-17T05:49:10.126Z,11.57
2023-03-17T05:51:37.442Z,12.55
2023-03-17T05:54:05.144Z,6.70
2023-03-17T05:56:33.844Z,7.50
2023-03-17T05:59:01.933Z,8.68
2023-03-17T06:01:30.121Z,12.30
2023-03-17T06:03:57.622Z,10.55
2023-03-17T06:06:25.807Z,18.48
2023-03-17T06:08:53.000Z,22.05
2023-03-17T06:11:21.574Z,13.48
2023-03-17T06:13:48.837Z,12.15
2023-03-17T06:16:17.651Z,10.38
2023-03-17T06:18:46.135Z,12.00
2023-03-17T06:21:13.806Z,10.45
2023-03-17T06:23:40.984Z,14.43
2023-03-17T06:26:08.486Z,7.70
2023-03-17T06:28:35.768Z,7.82
2023-03-17T06:31:05.252Z,7.37
2023-03-17T06:33:34.589Z,6.75
2023-03-17T06:36:01.862Z,9.48
2023-03-17T06:38:29.019Z,15.30
2023-03-17T06:40:56.359Z,5.65
2023-03-17T06:43:25.082Z,10.73
2023-03-17T06:45:52.755Z,26.67
2023-03-17T06:48:20.173Z,7.25
2023-03-17T06:50:50.499Z,16.40
2023-03-17T06:53:17.635Z,10.70
2023-03-17T06:55:45.097Z,9.15
2023-03-17T06:58:13.212Z,5.85
2023-03-17T07:00:40.671Z,7.05
2023-03-17T07:03:09.905Z,8.52
2023-03-17T07:05:40.055Z,18.58
2023-03-17T07:08:07.902Z,17.17
2023-03-17T07:10:36.703Z,10.07
2023-03-17T07:13:06.044Z,5.20
2023-03-17T07:15:35.846Z,7.72
2023-03-17T07:18:04.073Z,7.53
2023-03-17T07:20:31.749Z,6.25
2023-03-17T07:22:59.367Z,11.50
2023-03-17T07:25:26.724Z,8.10
2023-03-17T07:27:53.807Z,12.60
2023-03-17T07:30:21.739Z,10.02
2023-03-17T07:32:49.100Z,17.23
2023-03-17T07:35:16.598Z,9.27
2023-03-17T07:37:44.613Z,10.93
2023-03-17T07:40:12.245Z,15.95
2023-03-17T07:42:39.377Z,11.30
2023-03-17T07:45:07.946Z,7.53
2023-03-17T07:47:35.263Z,14.40
2023-03-17T07:50:02.608Z,13.05
2023-03-17T07:52:30.410Z,10.55
2023-03-17T07:54:58.420Z,14.50
2023-03-17T07:57:25.527Z,14.30
2023-03-17T07:59:53.004Z,9.07
2023-03-17T08:02:21.145Z,14.07
2023-03-17T08:04:48.826Z,9.23
2023-03-17T08:07:15.897Z,9.43
2023-03-17T08:09:43.077Z,7.50
2023-03-17T08:12:10.809Z,10.13
2023-03-17T08:14:37.797Z,6.97
2023-03-17T08:17:05.239Z,7.60
2023-03-17T08:19:32.679Z,9.10
2023-03-17T08:21:59.926Z,5.00
2023-03-17T08:24:27.115Z,9.38
2023-03-17T08:26:54.542Z,10.60
2023-03-17T08:29:21.694Z,11.32
2023-03-17T08:31:48.740Z,7.10
2023-03-17T08:34:16.562Z,9.68
2023-03-17T08:36:43.659Z,18.33
2023-03-17T08:39:11.322Z,10.25
2023-03-17T08:41:38.898Z,16.20
2023-03-17T08:44:05.966Z,11.57
2023-03-17T08:46:33.144Z,14.32
2023-03-17T08:49:01.930Z,12.60
2023-03-17T08:51:36.013Z,11.93
2023-03-17T08:54:04.059Z,10.07
2023-03-17T08:56:31.100Z,6.80
2023-03-17T08:58:58.537Z,13.38
2023-03-17T09:01:27.392Z,6.30
2023-03-17T09:03:55.120Z,11.05
2023-03-17T09:06:22.707Z,6.22
2023-03-17T09:08:55.259Z,9.15
2023-03-17T09:11:25.431Z,12.48
2023-03-17T09:13:53.459Z,9.20
2023-03-17T09:16:20.588Z,6.10
2023-03-17T09:18:47.633Z,6.03
2023-03-17T09:21:15.985Z,6.53
2023-03-17T09:23:43.486Z,6.43
2023-03-17T09:26:12.570Z,11.23
2023-03-17T09:28:39.956Z,6.00
2023-03-17T09:31:11.612Z,5.60
2023-03-17T09:33:40.693Z,7.35
2023-03-17T09:36:09.758Z,6.68
2023-03-17T09:38:37.513Z,8.27
2023-03-17T09:41:12.166Z,5.28
2023-03-17T09:43:45.756Z,5.43
2023-03-17T09:46:31.663Z,4.83
2023-03-17T09:49:07.362Z,4.18
2023-03-17T09:51:35.782Z,5.45
2023-03-17T09:54:18.921Z,9.65
2023-03-17T09:56:53.255Z,6.68
2023-03-17T09:59:28.172Z,7.60
2023-03-17T10:01:56.060Z,5.05
2023-03-17T10:04:24.367Z,6.43
2023-03-17T10:06:53.036Z,9.00
2023-03-17T10:09:42.150Z,6.32
2023-03-17T10:12:15.407Z,7.82
2023-03-17T10:14:56.500Z,5.32
2023-03-17T10:17:30.041Z,9.43
2023-03-17T10:19:57.105Z,7.87
2023-03-17T10:22:58.204Z,11.80
2023-03-17T10:25:29.433Z,7.10
2023-03-17T10:28:03.612Z,5.57
2023-03-17T10:30:35.745Z,7.00
2023-03-17T10:33:07.124Z,7.43
2023-03-17T10:35:36.645Z,5.43
2023-03-17T10:38:24.181Z,13.73
2023-03-17T10:41:00.045Z,4.53
2023-03-17T10:43:36.368Z,15.30
2023-03-17T10:46:06.406Z,2.95
2023-03-17T10:48:38.565Z,5.37
2023-03-17T10:51:08.007Z,5.82
2023-03-17T10:53:43.328Z,41.70
2023-03-17T10:56:21.549Z,3.55
2023-03-17T10:58:51.505Z,5.70
2023-03-17T11:01:22.785Z,5.53
2023-03-17T11:03:50.952Z,11.05
2023-03-17T11:06:20.869Z,5.80
2023-03-17T11:08:50.886Z,8.60
2023-03-17T11:11:33.184Z,7.87
2023-03-17T11:14:11.637Z,6.20
2023-03-17T11:16:48.748Z,11.30
2023-03-17T11:19:17.337Z,6.80
2023-03-17T11:22:00.078Z,15.63
2023-03-17T11:24:33.620Z,30.10
2023-03-17T11:27:44.650Z,7.90
2023-03-17T11:30:20.070Z,12.02
2023-03-17T11:33:16.871Z,7.62
2023-03-17T11:35:54.676Z,6.05
2023-03-17T11:38:48.436Z,14.73
2023-03-17T11:41:15.683Z,5.05
2023-03-17T11:44:05.815Z,7.93
2023-03-17T11:46:56.006Z,8.30
2023-03-17T11:49:37.309Z,14.20
2023-03-17T11:52:07.372Z,7.72
2023-03-17T11:54:54.367Z,8.73
2023-03-17T11:57:27.414Z,9.65
2023-03-17T11:59:58.883Z,10.55
2023-03-17T12:02:58.908Z,15.73
2023-03-17T12:05:28.252Z,4.55
2023-03-17T12:08:07.667Z,17.92
2023-03-17T12:10:56.506Z,13.38
2023-03-17T12:13:45.535Z,10.00
2023-03-17T12:16:17.584Z,6.70
2023-03-17T12:19:12.390Z,11.95
2023-03-17T12:21:59.328Z,61.65
2023-03-17T12:24:34.804Z,7.78
2023-03-17T12:27:11.661Z,6.25
2023-03-17T12:29:52.553Z,6.40
2023-03-17T12:32:24.307Z,6.87
2023-03-17T12:34:59.727Z,10.27
2023-03-17T12:37:30.086Z,7.55
2023-03-17T12:40:16.658Z,5.72
2023-03-17T12:42:53.780Z,9.02
2023-03-17T12:45:47.388Z,4.75
2023-03-17T12:48:33.662Z,6.53
2023-03-17T12:51:32.228Z,11.70
2023-03-17T12:54:00.284Z,20.67
2023-03-17T12:56:34.433Z,11.20
2023-03-17T12:59:09.714Z,4.80
2023-03-17T13:01:44.638Z,12.57
2023-03-17T13:04:15.349Z,4.20
2023-03-17T13:06:45.847Z,9.35
2023-03-17T13:09:32.075Z,3.37
2023-03-17T13:12:00.608Z,7.03
2023-03-17T13:14:48.270Z,5.43
2023-03-17T13:17:24.581Z,5.80
2023-03-17T13:20:12.556Z,8.50
2023-03-17T13:22:44.330Z,4.12
2023-03-17T13:25:35.860Z,6.53
2023-03-17T13:28:12.015Z,15.43
2023-03-17T13:30:39.442Z,4.80
2023-03-17T13:33:12.276Z,13.02
2023-03-17T13:36:00.718Z,10.10
2023-03-17T13:39:04.928Z,12.45
2023-03-17T13:41:52.675Z,6.65
2023-03-17T13:44:19.689Z,5.68
2023-03-17T13:46:48.327Z,5.57
2023-03-17T13:49:18.698Z,4.00
2023-03-17T13:51:59.981Z,3.20
2023-03-17T13:54:30.599Z,6.07
2023-03-17T13:57:23.332Z,5.85
2023-03-17T13:59:51.171Z,10.25
2023-03-17T14:02:20.703Z,6.72
2023-03-17T14:04:58.168Z,7.93
2023-03-17T14:07:29.423Z,4.30
2023-03-17T14:10:00.548Z,4.65
2023-03-17T14:12:42.462Z,6.00
2023-03-17T14:15:28.085Z,7.55
2023-03-17T14:18:12.600Z,3.80
2023-03-17T14:20:40.768Z,5.00
2023-03-17T14:23:09.332Z,6.25
2023-03-17T14:25:38.397Z,7.47
2023-03-17T14:28:10.996Z,6.35
2023-03-17T14:30:38.897Z,5.30
2023-03-17T14:33:12.313Z,20.45
2023-03-17T14:35:44.705Z,12.05
2023-03-17T14:38:23.996Z,7.95
2023-03-17T14:41:18.803Z,5.97
2023-03-17T14:43:46.566Z,4.12
2023-03-17T14:46:22.199Z,8.30
2023-03-17T14:49:05.179Z,18.12
2023-03-17T14:51:39.182Z,12.82
2023-03-17T14:54:18.967Z,17.65
2023-03-17T14:56:52.220Z,10.10
2023-03-17T14:59:27.154Z,18.60
2023-03-17T15:01:56.450Z,7.28
2023-03-17T15:04:25.685Z,5.80
2023-03-17T15:06:53.974Z,6.62
2023-03-17T15:09:34.627Z,6.78
2023-03-17T15:12:18.563Z,11.52
2023-03-17T15:14:46.436Z,6.05
2023-03-17T15:17:19.481Z,6.20
2023-03-17T15:19:49.472Z,2.92
2023-03-17T15:22:26.280Z,5.10
2023-03-17T15:25:02.540Z,9.13
2023-03-17T15:27:31.151Z,6.10
2023-03-17T15:29:58.604Z,6.45
2023-03-17T15:32:26.935Z,5.70
2023-03-17T15:34:57.065Z,5.32
2023-03-17T15:37:29.345Z,5.72
2023-03-17T15:39:57.059Z,9.07
2023-03-17T15:42:30.667Z,7.55
2023-03-17T15:45:00.288Z,6.00
2023-03-17T15:47:29.196Z,8.02
2023-03-17T15:50:14.804Z,4.95
2023-03-17T15:52:42.772Z,13.68
2023-03-17T15:55:21.506Z,6.05
2023-03-17T15:57:55.038Z,8.50
2023-03-17T16:00:24.557Z,17.95
2023-03-17T16:02:57.165Z,8.05
2023-03-17T16:05:27.023Z,8.65
2023-03-17T16:07:54.824Z,6.80
2023-03-17T16:10:27.816Z,12.80
2023-03-17T16:12:55.656Z,10.63
2023-03-17T16:15:31.589Z,7.07
2023-03-17T16:18:02.520Z,9.75
2023-03-17T16:20:38.875Z,13.43
2023-03-17T16:23:11.760Z,6.55
2023-03-17T16:25:38.903Z,8.82
2023-03-17T16:28:20.342Z,12.18
2023-03-17T16:30:48.902Z,8.60
2023-03-17T16:33:27.558Z,10.15
2023-03-17T16:35:55.910Z,9.57
2023-03-17T16:38:25.064Z,8.73
2023-03-17T16:40:53.907Z,13.45
2023-03-17T16:43:33.589Z,12.02
2023-03-17T16:46:03.021Z,15.77
2023-03-17T16:48:31.260Z,15.55
2023-03-17T16:50:58.826Z,17.08
2023-03-17T16:53:26.325Z,29.08
2023-03-17T16:55:54.395Z,17.73
2023-03-17T16:58:26.622Z,15.98
2023-03-17T17:00:59.676Z,18.98
2023-03-17T17:03:27.828Z,22.45
2023-03-17T17:05:55.820Z,33.22
2023-03-17T17:08:23.163Z,35.08
2023-03-17T17:10:50.342Z,30.73
2023-03-17T17:13:17.742Z,32.47
2023-03-17T17:15:44.824Z,36.25
2023-03-17T17:18:17.374Z,28.10
2023-03-17T17:20:45.936Z,28.23
2023-03-17T17:23:16.144Z,26.65
2023-03-17T17:25:43.755Z,30.70
2023-03-17T17:28:12.468Z,32.95
2023-03-17T17:30:42.985Z,36.53
2023-03-17T17:33:10.909Z,23.60
2023-03-17T17:35:38.587Z,31.02
2023-03-17T17:38:11.137Z,40.05
2023-03-17T17:40:38.503Z,46.60
2023-03-17T17:43:05.691Z,18.35
2023-03-17T17:45:32.963Z,16.02
2023-03-17T17:48:00.389Z,22.00
2023-03-17T17:50:28.860Z,25.58
2023-03-17T17:53:02.653Z,38.33
2023-03-17T17:55:29.982Z,28.33
2023-03-17T17:57:56.981Z,22.65
2023-03-17T18:00:25.707Z,28.48
2023-03-17T18:02:53.016Z,25.83
2023-03-17T18:05:20.340Z,31.98
2023-03-17T18:07:47.456Z,32.22
2023-03-17T18:10:19.105Z,31.33
2023-03-17T18:12:46.338Z,24.98
2023-03-17T18:15:13.529Z,36.35
2023-03-17T18:17:43.054Z,34.90
2023-03-17T18:20:12.608Z,44.40
2023-03-17T18:22:39.922Z,41.63
2023-03-17T18:25:09.848Z,41.35
2023-03-17T18:27:38.122Z,39.63
2023-03-17T18:30:07.416Z,38.72
2023-03-17T18:32:35.181Z,35.55
2023-03-17T18:35:06.607Z,43.75
2023-03-17T18:37:33.905Z,41.33
2023-03-17T18:40:13.304Z,40.75
2023-03-17T18:42:42.422Z,44.13
2023-03-17T18:45:11.646Z,55.20
2023-03-17T18:47:39.140Z,32.58
2023-03-17T18:50:08.084Z,39.90
2023-03-17T18:52:37.393Z,44.90
2023-03-17T18:55:05.293Z,77.10
2023-03-17T18:57:32.539Z,43.92
2023-03-17T19:00:00.041Z,27.42
2023-03-17T19:02:27.123Z,34.90
2023-03-17T19:04:54.478Z,30.73
2023-03-17T19:07:22.839Z,34.55
2023-03-17T19:09:49.946Z,33.42
2023-03-17T19:12:17.073Z,32.28
2023-03-17T19:14:44.642Z,29.73
2023-03-17T19:17:11.746Z,28.30
2023-03-17T19:19:39.127Z,22.35
2023-03-17T19:22:06.521Z,29.23
2023-03-17T19:24:36.069Z,29.35
2023-03-17T19:27:03.908Z,27.77
2023-03-17T19:29:32.506Z,21.67
2023-03-17T19:31:59.675Z,31.52
2023-03-17T19:34:27.357Z,24.55
2023-03-17T19:36:54.787Z,22.02
2023-03-17T19:39:22.188Z,19.23
2023-03-17T19:41:53.322Z,24.95
2023-03-17T19:44:24.225Z,30.20
2023-03-17T19:46:51.292Z,27.98
2023-03-17T19:49:19.858Z,26.15
2023-03-17T19:51:47.537Z,23.23
2023-03-17T19:54:14.836Z,22.60
2023-03-17T19:56:43.309Z,20.25
2023-03-17T19:59:10.756Z,20.77
2023-03-17T20:01:38.378Z,24.00
2023-03-17T20:04:09.406Z,18.58
2023-03-17T20:06:36.689Z,18.45
2023-03-17T20:09:04.336Z,20.12
2023-03-17T20:11:35.926Z,18.67
2023-03-17T20:14:03.271Z,19.20
2023-03-17T20:16:33.768Z,22.45
2023-03-17T20:19:02.421Z,20.30
2023-03-17T20:21:29.752Z,19.37
2023-03-17T20:23:56.943Z,17.23
2023-03-17T20:26:26.928Z,18.12
2023-03-17T20:28:54.029Z,17.60
2023-03-17T20:31:22.758Z,16.98
2023-03-17T20:33:50.506Z,21.85
2023-03-17T20:36:17.507Z,19.90
2023-03-17T20:38:44.513Z,16.50
2023-03-17T20:41:14.738Z,14.68
2023-03-17T20:43:42.059Z,17.30
2023-03-17T20:46:15.198Z,15.88
2023-03-17T20:48:44.223Z,14.37
2023-03-17T20:51:16.311Z,13.80
2023-03-17T20:53:46.298Z,12.00
2023-03-17T20:56:15.668Z,14.55
2023-03-17T20:58:43.541Z,12.00
2023-03-17T21:01:12.854Z,19.75
2023-03-17T21:03:41.110Z,14.23
2023-03-17T21:06:08.823Z,16.23
2023-03-17T21:08:37.741Z,12.50
2023-03-17T21:11:06.837Z,12.27
2023-03-17T21:13:34.599Z,23.87
2023-03-17T21:16:02.515Z,13.82
2023-03-17T21:18:29.751Z,10.25
2023-03-17T21:20:56.940Z,13.85
2023-03-17T21:23:24.510Z,8.27
2023-03-17T21:25:56.052Z,20.48
2023-03-17T21:28:23.362Z,11.73
2023-03-17T21:30:51.299Z,15.00
2023-03-17T21:33:18.468Z,14.82
2023-03-17T21:35:45.672Z,13.38
2023-03-17T21:38:13.144Z,14.27
2023-03-17T21:40:40.545Z,17.65
2023-03-17T21:43:07.992Z,14.70
2023-03-17T21:45:35.599Z,12.82
2023-03-17T21:48:02.926Z,13.70
2023-03-17T21:50:31.504Z,14.25
2023-03-17T21:52:59.370Z,22.17
2023-03-17T21:55:27.206Z,24.10
2023-03-17T21:57:54.312Z,13.32
2023-03-17T22:00:23.584Z,15.70
2023-03-17T22:02:52.695Z,14.98
2023-03-17T22:05:20.741Z,16.50
2023-03-17T22:07:48.366Z,11.75
2023-03-17T22:10:15.872Z,12.55
2023-03-17T22:12:43.165Z,17.10
2023-03-17T22:15:10.711Z,14.82
2023-03-17T22:17:39.694Z,10.40
2023-03-17T22:20:07.935Z,15.93
2023-03-17T22:22:35.844Z,12.30
2023-03-17T22:25:06.172Z,14.13
2023-03-17T22:27:33.647Z,19.15
2023-03-17T22:30:00.947Z,15.88
2023-03-17T22:32:28.420Z,15.85
2023-03-17T22:34:56.719Z,14.00
2023-03-17T22:37:24.732Z,14.95
2023-03-17T22:39:52.281Z,14.43
2023-03-17T22:42:19.366Z,14.35
2023-03-17T22:44:46.579Z,15.35
2023-03-17T22:47:15.960Z,11.23
2023-03-17T22:49:45.108Z,15.55
2023-03-17T22:52:12.213Z,13.27
2023-03-17T22:54:40.806Z,15.68
2023-03-17T22:57:07.919Z,11.93
2023-03-17T22:59:35.003Z,10.45
2023-03-17T23:02:02.654Z,17.20
2023-03-17T23:04:30.087Z,10.85
2023-03-17T23:06:58.977Z,15.48
2023-03-17T23:09:26.606Z,10.27
2023-03-17T23:11:53.682Z,8.85
2023-03-17T23:14:20.771Z,9.38
2023-03-17T23:16:48.713Z,13.60
2023-03-17T23:19:16.655Z,11.10
2023-03-17T23:21:43.900Z,9.30
2023-03-17T23:24:11.719Z,12.13
2023-03-17T23:26:38.838Z,11.12
2023-03-17T23:29:08.362Z,9.88
2023-03-17T23:31:37.064Z,8.25
2023-03-17T23:34:06.616Z,9.38
2023-03-17T23:36:35.099Z,12.23
2023-03-17T23:39:02.491Z,11.35
2023-03-17T23:41:29.540Z,11.27
2023-03-17T23:43:56.920Z,11.82
2023-03-17T23:46:25.783Z,10.15
2023-03-17T23:48:53.086Z,11.38
2023-03-17T23:51:20.140Z,7.62
2023-03-17T23:53:48.075Z,11.27
2023-03-17T23:56:15.445Z,8.77
2023-03-17T23:58:43.473Z,11.23
